createdAt,value
2022-08-16T00:01:24.486Z,15.93
2022-08-16T00:03:54.141Z,15.95
2022-08-16T00:06:22.504Z,15.99
2022-08-16T00:08:52.382Z,15.93
2022-08-16T00:11:21.828Z,15.87
2022-08-16T00:13:53.587Z,16.04
2022-08-16T00:17:06.560Z,16.11
2022-08-16T00:19:13.987Z,16.21
2022-08-16T00:21:42.938Z,15.90
2022-08-16T00:24:11.511Z,15.90
2022-08-16T00:26:43.782Z,16.04
2022-08-16T00:29:15.663Z,15.81
2022-08-16T00:32:00.112Z,16.12
2022-08-16T00:34:52.315Z,15.78
2022-08-16T00:37:24.498Z,15.99
2022-08-16T00:39:56.986Z,15.99
2022-08-16T00:42:30.285Z,15.66
2022-08-16T00:45:06.328Z,15.85
2022-08-16T00:47:37.914Z,15.99
2022-08-16T00:50:11.734Z,15.89
2022-08-16T00:52:50.202Z,15.92
2022-08-16T00:55:20.950Z,16.00
2022-08-16T00:57:59.827Z,15.88
2022-08-16T01:00:31.313Z,15.77
2022-08-16T01:03:02.534Z,15.81
2022-08-16T01:05:33.079Z,15.64
2022-08-16T01:08:02.551Z,15.42
2022-08-16T01:10:51.276Z,15.29
2022-08-16T01:13:22.577Z,15.20
2022-08-16T01:15:53.721Z,15.22
2022-08-16T01:18:40.171Z,15.42
2022-08-16T01:21:22.914Z,15.41
2022-08-16T01:24:53.626Z,15.37
2022-08-16T01:27:11.307Z,15.35
2022-08-16T01:29:59.092Z,15.55
2022-08-16T01:32:31.849Z,15.55
2022-08-16T01:35:01.931Z,15.52
2022-08-16T01:37:35.578Z,15.55
2022-08-16T01:40:07.149Z,15.56
2022-08-16T01:42:35.416Z,15.61
2022-08-16T01:45:03.312Z,15.40
2022-08-16T01:47:33.105Z,15.40
2022-08-16T01:50:43.240Z,15.44
2022-08-16T01:52:49.313Z,15.22
2022-08-16T01:55:19.834Z,15.15
2022-08-16T01:57:53.887Z,15.04
2022-08-16T02:00:29.349Z,15.27
2022-08-16T02:02:57.736Z,15.02
2022-08-16T02:05:25.517Z,15.29
2022-08-16T02:07:58.936Z,15.40
2022-08-16T02:10:28.554Z,15.30
2022-08-16T02:13:00.674Z,15.34
2022-08-16T02:15:31.085Z,15.35
2022-08-16T02:18:08.434Z,15.34
2022-08-16T02:20:42.622Z,15.44
2022-08-16T02:23:13.094Z,15.11
2022-08-16T02:25:52.027Z,14.97
2022-08-16T02:28:23.388Z,15.12
2022-08-16T02:30:52.205Z,14.98
2022-08-16T02:33:25.017Z,15.01
2022-08-16T02:36:14.176Z,15.07
2022-08-16T02:38:57.209Z,15.20
2022-08-16T02:41:26.419Z,15.01
2022-08-16T02:43:54.294Z,15.02
2022-08-16T02:46:30.223Z,15.01
2022-08-16T02:49:01.926Z,14.89
2022-08-16T02:51:31.404Z,14.75
2022-08-16T02:53:59.733Z,15.15
2022-08-16T02:56:32.167Z,15.04
2022-08-16T02:59:00.459Z,15.19
2022-08-16T03:01:37.141Z,15.15
2022-08-16T03:04:39.926Z,15.13
2022-08-16T03:06:56.374Z,15.11
2022-08-16T03:09:25.070Z,15.28
2022-08-16T03:11:54.223Z,15.10
2022-08-16T03:14:24.990Z,15.08
2022-08-16T03:16:59.522Z,15.16
2022-08-16T03:19:47.307Z,15.12
2022-08-16T03:22:19.503Z,15.09
2022-08-16T03:24:57.571Z,15.14
2022-08-16T03:27:31.396Z,15.05
2022-08-16T03:30:02.512Z,15.08
2022-08-16T03:32:45.048Z,15.03
2022-08-16T03:35:17.918Z,15.14
2022-08-16T03:38:02.753Z,15.13
2022-08-16T03:40:33.565Z,15.02
2022-08-16T03:43:20.236Z,15.10
2022-08-16T03:45:52.725Z,15.03
2022-08-16T03:48:36.379Z,15.09
2022-08-16T03:51:09.868Z,15.13
2022-08-16T03:53:41.106Z,15.13
2022-08-16T03:56:19.803Z,15.14
2022-08-16T03:58:52.707Z,14.93
2022-08-16T04:01:21.163Z,15.01
2022-08-16T04:03:50.130Z,15.07
2022-08-16T04:06:18.321Z,15.00
2022-08-16T04:08:46.064Z,14.88
2022-08-16T04:11:16.560Z,15.01
2022-08-16T04:14:01.562Z,14.97
2022-08-16T04:16:34.541Z,14.97
2022-08-16T04:19:04.209Z,14.86
2022-08-16T04:21:32.980Z,15.08
2022-08-16T04:24:01.077Z,15.02
2022-08-16T04:26:31.159Z,14.93
2022-08-16T04:29:16.761Z,14.91
2022-08-16T04:31:56.422Z,15.12
2022-08-16T04:34:28.291Z,15.09
2022-08-16T04:36:57.679Z,14.93
2022-08-16T04:39:45.830Z,14.91
2022-08-16T04:42:13.964Z,14.83
2022-08-16T04:44:57.491Z,14.83
2022-08-16T04:47:31.386Z,14.99
2022-08-16T04:50:00.153Z,15.09
2022-08-16T04:52:34.454Z,15.07
2022-08-16T04:55:06.135Z,15.05
2022-08-16T04:57:33.968Z,15.19
2022-08-16T05:00:30.266Z,15.43
2022-08-16T05:02:55.970Z,15.43
2022-08-16T05:05:24.625Z,15.45
2022-08-16T05:07:59.519Z,15.48
2022-08-16T05:10:29.467Z,15.56
2022-08-16T05:12:57.758Z,15.63
2022-08-16T05:15:25.937Z,15.74
2022-08-16T05:17:59.751Z,15.77
2022-08-16T05:20:38.507Z,15.87
2022-08-16T05:23:19.379Z,16.13
2022-08-16T05:25:49.091Z,16.29
2022-08-16T05:28:17.371Z,16.46
2022-08-16T05:30:50.418Z,16.48
2022-08-16T05:33:21.309Z,16.60
2022-08-16T05:35:55.678Z,16.78
2022-08-16T05:38:32.516Z,16.88
2022-08-16T05:41:09.521Z,16.67
2022-08-16T05:43:43.683Z,16.91
2022-08-16T05:46:30.057Z,16.89
2022-08-16T05:49:08.682Z,17.04
2022-08-16T05:51:38.668Z,16.96
2022-08-16T05:54:09.641Z,17.03
2022-08-16T05:56:39.636Z,17.24
2022-08-16T05:59:08.463Z,17.26
2022-08-16T06:01:38.210Z,17.45
2022-08-16T06:04:13.793Z,17.74
2022-08-16T06:06:57.791Z,18.02
2022-08-16T06:09:43.364Z,18.04
2022-08-16T06:12:27.400Z,18.04
2022-08-16T06:14:59.159Z,18.31
2022-08-16T06:17:41.498Z,18.43
2022-08-16T06:20:18.518Z,18.42
2022-08-16T06:22:58.609Z,18.61
2022-08-16T06:25:36.808Z,18.91
2022-08-16T06:28:16.850Z,19.04
2022-08-16T06:30:58.049Z,19.06
2022-08-16T06:33:29.300Z,18.83
2022-08-16T06:36:09.578Z,19.06
2022-08-16T06:38:37.563Z,19.33
2022-08-16T06:41:06.920Z,19.32
2022-08-16T06:43:42.004Z,19.71
2022-08-16T06:46:21.983Z,19.83
2022-08-16T06:48:51.864Z,19.98
2022-08-16T06:51:21.236Z,20.18
2022-08-16T06:53:52.677Z,20.09
2022-08-16T06:56:23.371Z,20.35
2022-08-16T06:58:53.068Z,20.51
2022-08-16T07:01:44.319Z,20.71
2022-08-16T07:04:11.208Z,21.11
2022-08-16T07:06:43.089Z,20.69
2022-08-16T07:09:12.550Z,21.39
2022-08-16T07:11:46.517Z,21.20
2022-08-16T07:14:24.415Z,21.72
2022-08-16T07:16:55.754Z,21.95
2022-08-16T07:20:04.035Z,21.88
2022-08-16T07:22:37.246Z,22.21
2022-08-16T07:25:05.305Z,21.85
2022-08-16T07:27:33.891Z,21.97
2022-08-16T07:30:46.055Z,22.57
2022-08-16T07:32:55.483Z,22.77
2022-08-16T07:35:23.788Z,22.85
2022-08-16T07:37:53.310Z,23.15
2022-08-16T07:40:36.867Z,22.99
2022-08-16T07:43:09.510Z,22.89
2022-08-16T07:45:37.442Z,23.33
2022-08-16T07:48:11.419Z,23.70
2022-08-16T07:50:57.299Z,23.89
2022-08-16T07:53:29.531Z,23.76
2022-08-16T07:55:58.533Z,23.30
2022-08-16T07:58:33.704Z,23.65
2022-08-16T08:01:05.696Z,24.01
2022-08-16T08:03:42.548Z,24.49
2022-08-16T08:06:13.380Z,23.62
2022-08-16T08:08:51.178Z,24.42
2022-08-16T08:11:21.804Z,24.98
2022-08-16T08:13:52.658Z,25.09
2022-08-16T08:16:22.223Z,25.36
2022-08-16T08:19:01.228Z,25.17
2022-08-16T08:22:01.327Z,25.71
2022-08-16T08:24:23.019Z,26.05
2022-08-16T08:27:02.137Z,26.26
2022-08-16T08:29:37.517Z,26.50
2022-08-16T08:32:57.789Z,26.63
2022-08-16T08:34:55.732Z,27.07
2022-08-16T08:37:28.327Z,26.60
2022-08-16T08:40:18.560Z,27.11
2022-08-16T08:42:48.078Z,26.96
2022-08-16T08:45:43.093Z,27.13
2022-08-16T08:48:06.498Z,26.79
2022-08-16T08:50:34.273Z,27.22
2022-08-16T08:53:02.896Z,28.06
2022-08-16T08:55:36.289Z,27.69
2022-08-16T08:58:04.182Z,27.14
2022-08-16T09:00:32.289Z,27.64
2022-08-16T09:03:18.384Z,28.28
2022-08-16T09:05:50.912Z,27.58
2022-08-16T09:08:19.191Z,27.54
2022-08-16T09:10:58.870Z,28.34
2022-08-16T09:13:33.086Z,28.60
2022-08-16T09:16:01.329Z,28.92
2022-08-16T09:18:35.779Z,29.16
2022-08-16T09:21:09.520Z,29.59
2022-08-16T09:23:37.965Z,28.36
2022-08-16T09:26:44.925Z,29.17
2022-08-16T09:29:16.983Z,29.38
2022-08-16T09:31:47.288Z,29.49
2022-08-16T09:34:21.444Z,29.40
2022-08-16T09:36:49.253Z,29.80
2022-08-16T09:39:22.320Z,30.49
2022-08-16T09:41:53.398Z,30.56
2022-08-16T09:45:12.574Z,30.32
2022-08-16T09:47:11.659Z,29.82
2022-08-16T09:49:41.010Z,30.68
2022-08-16T09:52:10.721Z,30.62
2022-08-16T09:54:44.637Z,31.11
2022-08-16T09:57:14.554Z,30.87
2022-08-16T09:59:43.325Z,31.34
2022-08-16T10:02:26.426Z,30.49
2022-08-16T10:04:57.184Z,31.08
2022-08-16T10:07:44.122Z,31.66
2022-08-16T10:10:13.365Z,31.34
2022-08-16T10:13:05.979Z,30.68
2022-08-16T10:15:33.845Z,29.82
2022-08-16T10:18:45.260Z,31.24
2022-08-16T10:20:50.926Z,32.12
2022-08-16T10:23:20.203Z,31.25
2022-08-16T10:27:17.692Z,30.70
2022-08-16T10:28:39.658Z,30.40
2022-08-16T10:31:12.076Z,31.70
2022-08-16T10:33:42.630Z,31.85
2022-08-16T10:36:13.167Z,31.77
2022-08-16T10:39:00.921Z,32.63
2022-08-16T10:41:30.018Z,33.30
2022-08-16T10:43:59.298Z,33.30
2022-08-16T10:46:40.097Z,32.91
2022-08-16T10:49:10.933Z,32.76
2022-08-16T10:52:01.716Z,33.40
2022-08-16T10:54:29.793Z,33.56
2022-08-16T10:56:59.175Z,33.87
2022-08-16T10:59:39.106Z,34.45
2022-08-16T11:03:37.433Z,34.06
2022-08-16T11:05:08.344Z,33.91
2022-08-16T11:07:45.213Z,33.96
2022-08-16T11:16:25.442Z,34.67
2022-08-16T11:19:04.503Z,35.03
2022-08-16T11:22:22.595Z,36.45
2022-08-16T11:24:42.711Z,36.96
2022-08-16T11:27:23.442Z,37.22
2022-08-16T11:29:55.299Z,37.16
2022-08-16T11:32:31.443Z,37.26
2022-08-16T11:35:13.895Z,37.56
2022-08-16T11:40:37.749Z,38.31
2022-08-16T11:43:06.860Z,37.67
2022-08-16T11:45:38.337Z,38.00
2022-08-16T11:48:08.430Z,38.92
2022-08-16T11:50:36.572Z,37.81
2022-08-16T11:53:08.386Z,38.12
2022-08-16T11:55:38.390Z,37.35
2022-08-16T11:58:07.352Z,37.05
2022-08-16T12:00:51.909Z,35.75
2022-08-16T12:03:34.561Z,36.57
2022-08-16T12:06:11.294Z,37.41
2022-08-16T12:08:57.502Z,36.70
2022-08-16T12:11:28.958Z,37.60
2022-08-16T12:14:00.014Z,35.71
2022-08-16T12:16:31.027Z,34.50
2022-08-16T12:19:00.242Z,37.58
2022-08-16T12:21:57.790Z,37.26
2022-08-16T12:24:15.827Z,39.01
2022-08-16T12:26:44.227Z,37.44
2022-08-16T12:29:12.057Z,36.52
2022-08-16T12:32:00.711Z,35.81
2022-08-16T12:34:29.398Z,37.03
2022-08-16T12:36:57.505Z,36.83
2022-08-16T12:39:28.926Z,38.33
2022-08-16T12:41:57.648Z,36.67
2022-08-16T12:44:27.108Z,35.52
2022-08-16T12:47:16.622Z,37.44
2022-08-16T12:49:45.715Z,35.55
2022-08-16T12:52:34.268Z,38.75
2022-08-16T12:55:02.392Z,37.86
2022-08-16T12:57:36.395Z,37.05
2022-08-16T13:00:07.213Z,38.86
2022-08-16T13:02:36.359Z,39.93
2022-08-16T13:05:08.159Z,37.92
2022-08-16T13:07:42.418Z,37.66
2022-08-16T13:10:21.269Z,38.12
2022-08-16T13:13:05.606Z,37.63
2022-08-16T13:15:36.268Z,37.16
2022-08-16T13:18:24.123Z,37.63
2022-08-16T13:20:57.074Z,37.04
2022-08-16T13:23:25.851Z,36.45
2022-08-16T13:25:54.866Z,36.61
2022-08-16T13:28:23.005Z,37.04
2022-08-16T13:30:53.564Z,37.72
2022-08-16T13:33:29.889Z,37.94
2022-08-16T13:36:01.568Z,37.93
2022-08-16T13:38:35.207Z,38.76
2022-08-16T13:41:08.437Z,38.19
2022-08-16T13:43:37.963Z,38.83
2022-08-16T13:46:06.681Z,38.78
2022-08-16T13:48:42.867Z,38.20
2022-08-16T13:51:16.639Z,38.37
2022-08-16T13:53:45.835Z,39.02
2022-08-16T13:56:24.953Z,39.17
2022-08-16T13:58:54.298Z,38.49
2022-08-16T14:01:23.642Z,39.07
2022-08-16T14:03:54.660Z,38.52
2022-08-16T14:06:24.955Z,37.44
2022-08-16T14:09:06.444Z,37.66
2022-08-16T14:11:35.981Z,37.60
2022-08-16T14:14:05.489Z,37.17
2022-08-16T14:16:34.826Z,37.28
2022-08-16T14:19:03.455Z,38.49
2022-08-16T14:21:34.920Z,37.88
2022-08-16T14:24:08.162Z,40.01
2022-08-16T14:26:52.656Z,38.50
2022-08-16T14:29:21.187Z,37.85
2022-08-16T14:31:53.838Z,38.14
2022-08-16T14:34:25.704Z,38.12
2022-08-16T14:36:55.003Z,38.53
2022-08-16T14:39:23.321Z,37.75
2022-08-16T14:41:53.674Z,38.90
2022-08-16T14:44:24.172Z,38.61
2022-08-16T14:46:54.027Z,38.46
2022-08-16T14:49:21.724Z,37.98
2022-08-16T14:51:49.539Z,36.15
2022-08-16T14:54:18.752Z,36.79
2022-08-16T14:56:54.705Z,37.30
2022-08-16T14:59:23.361Z,37.20
2022-08-16T15:01:59.767Z,37.65
2022-08-16T15:04:32.410Z,37.56
2022-08-16T15:07:17.611Z,36.69
2022-08-16T15:10:00.432Z,36.54
2022-08-16T15:12:33.421Z,35.67
2022-08-16T15:15:04.526Z,36.02
2022-08-16T15:17:54.111Z,36.78
2022-08-16T15:20:26.121Z,34.92
2022-08-16T15:22:54.911Z,35.10
2022-08-16T15:25:29.497Z,34.18
2022-08-16T15:27:58.795Z,34.05
2022-08-16T15:30:58.015Z,34.27
2022-08-16T15:33:20.251Z,33.72
2022-08-16T15:35:50.666Z,32.76
2022-08-16T15:38:56.901Z,32.08
2022-08-16T15:41:07.717Z,31.74
2022-08-16T15:43:40.053Z,31.35
2022-08-16T15:46:54.305Z,31.12
2022-08-16T15:49:12.697Z,31.74
2022-08-16T15:51:43.594Z,31.28
2022-08-16T15:54:21.408Z,30.75
2022-08-16T15:57:11.642Z,31.51
2022-08-16T15:59:48.568Z,31.60
2022-08-16T16:02:27.539Z,31.10
2022-08-16T16:04:57.687Z,30.82
2022-08-16T16:07:29.993Z,30.49
2022-08-16T16:09:58.888Z,30.25
2022-08-16T16:15:18.490Z,29.76
2022-08-16T16:17:50.659Z,29.50
2022-08-16T16:20:19.328Z,29.32
2022-08-16T16:22:47.700Z,29.16
2022-08-16T16:25:15.879Z,29.22
2022-08-16T16:27:46.616Z,28.74
2022-08-16T16:30:37.579Z,29.27
2022-08-16T16:33:20.715Z,28.67
2022-08-16T16:35:55.680Z,28.44
2022-08-16T16:38:28.488Z,28.26
2022-08-16T16:40:55.979Z,28.27
2022-08-16T16:43:31.899Z,28.07
2022-08-16T16:46:01.964Z,27.74
2022-08-16T16:48:34.970Z,27.58
2022-08-16T16:51:09.131Z,27.51
2022-08-16T16:53:41.453Z,27.54
2022-08-16T16:56:19.529Z,27.35
2022-08-16T16:59:01.000Z,27.25
2022-08-16T17:01:56.535Z,27.42
2022-08-16T17:04:27.369Z,27.21
2022-08-16T17:06:59.987Z,27.21
2022-08-16T17:09:27.735Z,26.94
2022-08-16T17:11:56.011Z,26.89
2022-08-16T17:14:32.329Z,26.73
2022-08-16T17:17:01.749Z,26.55
2022-08-16T17:19:31.677Z,26.38
2022-08-16T17:21:59.679Z,26.35
2022-08-16T17:24:31.439Z,26.04
2022-08-16T17:27:08.184Z,26.18
2022-08-16T17:29:45.873Z,25.97
2022-08-16T17:32:46.634Z,25.86
2022-08-16T17:35:10.232Z,25.88
2022-08-16T17:37:48.773Z,25.78
2022-08-16T17:40:46.997Z,25.73
2022-08-16T17:43:20.442Z,25.86
2022-08-16T17:45:50.299Z,25.62
2022-08-16T17:48:19.637Z,25.58
2022-08-16T17:50:47.339Z,25.60
2022-08-16T17:53:16.275Z,25.12
2022-08-16T17:55:47.713Z,25.13
2022-08-16T17:58:22.242Z,25.23
2022-08-16T18:00:55.871Z,24.91
2022-08-16T18:04:07.480Z,24.81
2022-08-16T18:06:18.453Z,24.70
2022-08-16T18:08:49.005Z,24.54
2022-08-16T18:11:24.231Z,24.53
2022-08-16T18:13:54.521Z,24.53
2022-08-16T18:16:24.138Z,24.52
2022-08-16T18:18:51.838Z,24.24
2022-08-16T18:21:37.114Z,24.11
2022-08-16T18:24:05.395Z,24.06
2022-08-16T18:26:33.103Z,23.99
2022-08-16T18:29:01.082Z,23.91
2022-08-16T18:31:30.179Z,23.93
2022-08-16T18:33:58.015Z,23.51
2022-08-16T18:36:26.328Z,23.59
2022-08-16T18:38:54.863Z,23.37
2022-08-16T18:41:25.786Z,23.47
2022-08-16T18:44:22.276Z,23.49
2022-08-16T18:46:44.886Z,23.33
2022-08-16T18:49:17.754Z,23.67
2022-08-16T18:51:46.148Z,23.62
2022-08-16T18:54:16.284Z,23.81
2022-08-16T18:56:55.775Z,23.64
2022-08-16T18:59:25.145Z,23.30
2022-08-16T19:01:59.650Z,23.37
2022-08-16T19:04:55.938Z,23.61
2022-08-16T19:07:16.319Z,23.52
2022-08-16T19:09:44.251Z,23.60
2022-08-16T19:12:11.970Z,23.94
2022-08-16T19:14:44.233Z,23.87
2022-08-16T19:17:13.435Z,23.89
2022-08-16T19:19:41.158Z,23.87
2022-08-16T19:22:08.870Z,23.95
2022-08-16T19:24:36.618Z,23.92
2022-08-16T19:27:10.060Z,23.83
2022-08-16T19:29:37.819Z,23.51
2022-08-16T19:32:05.646Z,23.29
2022-08-16T19:34:34.727Z,23.14
2022-08-16T19:37:02.455Z,23.21
2022-08-16T19:39:32.687Z,23.29
2022-08-16T19:42:12.823Z,23.37
2022-08-16T19:44:42.791Z,23.35
2022-08-16T19:47:11.630Z,23.10
2022-08-16T19:49:41.268Z,23.03
2022-08-16T19:52:14.210Z,23.08
2022-08-16T19:54:42.111Z,22.74
2022-08-16T19:57:10.667Z,22.79
2022-08-16T19:59:40.915Z,22.80
2022-08-16T20:02:32.579Z,22.77
2022-08-16T20:05:06.550Z,22.81
2022-08-16T20:07:34.328Z,22.73
2022-08-16T20:10:02.468Z,22.58
2022-08-16T20:12:30.182Z,22.45
2022-08-16T20:14:59.182Z,22.30
2022-08-16T20:17:27.142Z,22.19
2022-08-16T20:19:54.899Z,22.11
2022-08-16T20:22:52.622Z,22.09
2022-08-16T20:25:20.659Z,22.09
2022-08-16T20:27:56.860Z,21.86
2022-08-16T20:30:25.479Z,22.00
2022-08-16T20:32:54.223Z,21.94
2022-08-16T20:35:25.407Z,21.84
2022-08-16T20:37:54.896Z,21.72
2022-08-16T20:40:34.036Z,21.75
2022-08-16T20:43:06.366Z,21.75
2022-08-16T20:45:34.918Z,21.58
2022-08-16T20:48:02.874Z,21.51
2022-08-16T20:50:30.588Z,21.53
2022-08-16T20:53:00.294Z,21.37
2022-08-16T20:55:29.055Z,21.33
2022-08-16T20:57:56.819Z,21.38
2022-08-16T21:00:24.830Z,21.43
2022-08-16T21:02:52.618Z,21.56
2022-08-16T21:05:24.039Z,21.54
2022-08-16T21:07:52.653Z,21.48
2022-08-16T21:10:23.738Z,21.56
2022-08-16T21:12:54.497Z,21.57
2022-08-16T21:15:23.615Z,21.33
2022-08-16T21:17:51.558Z,21.28
2022-08-16T21:20:22.180Z,21.45
2022-08-16T21:22:54.954Z,21.31
2022-08-16T21:25:25.179Z,21.20
2022-08-16T21:28:41.999Z,21.34
2022-08-16T21:30:41.187Z,21.36
2022-08-16T21:33:11.956Z,21.28
2022-08-16T21:35:40.968Z,21.50
2022-08-16T21:38:30.239Z,21.43
2022-08-16T21:40:59.615Z,21.50
2022-08-16T21:43:32.190Z,21.39
2022-08-16T21:46:00.875Z,21.53
2022-08-16T21:48:33.629Z,21.43
2022-08-16T21:51:03.985Z,21.33
2022-08-16T21:53:31.746Z,21.34
2022-08-16T21:56:01.653Z,21.32
2022-08-16T21:58:29.714Z,21.21
2022-08-16T22:00:58.035Z,21.21
2022-08-16T22:03:26.027Z,21.29
2022-08-16T22:06:13.560Z,21.20
2022-08-16T22:08:48.043Z,21.09
2022-08-16T22:11:20.486Z,21.00
2022-08-16T22:13:51.324Z,20.99
2022-08-16T22:16:26.465Z,21.08
2022-08-16T22:18:54.163Z,21.10
2022-08-16T22:21:21.993Z,21.08
2022-08-16T22:23:55.194Z,21.06
2022-08-16T22:26:29.697Z,21.04
2022-08-16T22:29:00.046Z,20.81
2022-08-16T22:31:27.790Z,20.83
2022-08-16T22:33:56.626Z,20.93
2022-08-16T22:36:28.125Z,20.89
2022-08-16T22:38:58.073Z,20.84
2022-08-16T22:41:28.723Z,20.72
2022-08-16T22:43:56.687Z,20.77
2022-08-16T22:46:24.422Z,20.81
2022-08-16T22:48:52.580Z,20.79
2022-08-16T22:51:22.389Z,20.71
2022-08-16T22:53:50.182Z,20.56
2022-08-16T22:56:17.955Z,20.60
2022-08-16T22:58:47.970Z,20.53
2022-08-16T23:01:18.291Z,20.68
2022-08-16T23:03:46.083Z,20.58
2022-08-16T23:06:14.682Z,20.53
2022-08-16T23:08:44.921Z,20.53
2022-08-16T23:11:19.377Z,20.45
2022-08-16T23:13:53.086Z,20.34
2022-08-16T23:16:22.820Z,20.08
2022-08-16T23:18:53.341Z,20.20
2022-08-16T23:21:21.866Z,20.11
2022-08-16T23:23:50.596Z,20.23
2022-08-16T23:26:45.407Z,20.23
2022-08-16T23:29:16.048Z,20.11
2022-08-16T23:31:55.037Z,20.29
2022-08-16T23:34:23.298Z,20.35
2022-08-16T23:36:51.066Z,20.30
2022-08-16T23:39:18.754Z,20.07
2022-08-16T23:41:46.503Z,20.07
2022-08-16T23:44:57.430Z,20.09
2022-08-16T23:47:04.086Z,20.20
2022-08-16T23:49:56.185Z,20.01
2022-08-16T23:52:48.583Z,19.99
2022-08-16T23:55:08.853Z,20.10
2022-08-16T23:57:37.439Z,19.99
